sensor_id;sensor_type;location;lat;lon;timestamp;pressure;altitude;pressure_sealevel;temperature;humidity
5298;BME280;14738;42.668;23.250;2023-07-29T00:00:44;48330.75;;;-141.90;47.50
5298;BME280;14738;42.668;23.250;2023-07-29T00:03:10;48310.91;;;-141.90;46.93
5298;BME280;14738;42.668;23.250;2023-07-29T00:05:37;48291.03;;;-141.90;47.15
5298;BME280;14738;42.668;23.250;2023-07-29T00:08:03;48300.97;;;-141.90;46.56
5298;BME280;14738;42.668;23.250;2023-07-29T00:10:30;48300.97;;;-141.90;46.52
5298;BME280;14738;42.668;23.250;2023-07-29T00:12:56;48338.69;;;-141.90;46.41
5298;BME280;14738;42.668;23.250;2023-07-29T00:15:21;48334.72;;;-141.90;46.32
5298;BME280;14738;42.668;23.250;2023-07-29T00:17:47;48332.72;;;-141.90;46.68
5298;BME280;14738;42.668;23.250;2023-07-29T00:20:12;48322.81;;;-141.90;46.95
5298;BME280;14738;42.668;23.250;2023-07-29T00:22:38;48314.88;;;-141.90;46.42
5298;BME280;14738;42.668;23.250;2023-07-29T00:25:03;48334.72;;;-141.90;47.61
5298;BME280;14738;42.668;23.250;2023-07-29T00:27:29;48310.91;;;-141.90;48.00
5298;BME280;14738;42.668;23.250;2023-07-29T00:29:54;48302.94;;;-141.90;48.56
5298;BME280;14738;42.668;23.250;2023-07-29T00:32:20;48285.09;;;-141.90;48.47
5298;BME280;14738;42.668;23.250;2023-07-29T00:34:45;48354.56;;;-141.90;49.53
5298;BME280;14738;42.668;23.250;2023-07-29T00:37:11;48302.94;;;-141.90;48.30
5298;BME280;14738;42.668;23.250;2023-07-29T00:39:37;48326.78;;;-141.90;48.15
5298;BME280;14738;42.668;23.250;2023-07-29T00:42:03;48314.88;;;-141.90;48.59
5298;BME280;14738;42.668;23.250;2023-07-29T00:44:29;48338.69;;;-141.90;47.74
5298;BME280;14738;42.668;23.250;2023-07-29T00:46:56;48316.84;;;-141.90;48.76
5298;BME280;14738;42.668;23.250;2023-07-29T00:49:22;48340.66;;;-141.90;48.08
5298;BME280;14738;42.668;23.250;2023-07-29T00:51:47;48336.69;;;-141.90;47.92
5298;BME280;14738;42.668;23.250;2023-07-29T00:54:13;48322.81;;;-141.90;48.42
5298;BME280;14738;42.668;23.250;2023-07-29T00:56:40;48328.75;;;-141.90;48.56
5298;BME280;14738;42.668;23.250;2023-07-29T00:59:05;48330.75;;;-141.90;49.20
5298;BME280;14738;42.668;23.250;2023-07-29T01:01:31;48318.84;;;-141.90;49.56
5298;BME280;14738;42.668;23.250;2023-07-29T01:03:57;48300.97;;;-141.90;50.13
5298;BME280;14738;42.668;23.250;2023-07-29T01:06:52;48330.75;;;-141.90;50.89
5298;BME280;14738;42.668;23.250;2023-07-29T01:09:38;48300.97;;;-141.90;50.49
5298;BME280;14738;42.668;23.250;2023-07-29T01:14:42;48295.00;;;-141.90;50.56
5298;BME280;14738;42.668;23.250;2023-07-29T01:17:19;48334.72;;;-141.90;50.61
5298;BME280;14738;42.668;23.250;2023-07-29T01:22:25;48298.97;;;-141.90;51.16
5298;BME280;14738;42.668;23.250;2023-07-29T01:24:50;48316.84;;;-141.90;50.81
5298;BME280;14738;42.668;23.250;2023-07-29T01:27:16;48326.78;;;-141.90;50.49
5298;BME280;14738;42.668;23.250;2023-07-29T01:29:41;48318.84;;;-141.90;51.28
5298;BME280;14738;42.668;23.250;2023-07-29T01:32:13;48354.56;;;-141.90;50.79
5298;BME280;14738;42.668;23.250;2023-07-29T01:37:30;48338.69;;;-141.90;50.56
5298;BME280;14738;42.668;23.250;2023-07-29T01:39:59;48330.75;;;-141.90;50.29
5298;BME280;14738;42.668;23.250;2023-07-29T01:42:25;48322.81;;;-141.90;51.08
5298;BME280;14738;42.668;23.250;2023-07-29T01:44:52;48310.91;;;-141.90;51.13
5298;BME280;14738;42.668;23.250;2023-07-29T01:47:17;48330.75;;;-141.90;50.82
5298;BME280;14738;42.668;23.250;2023-07-29T01:49:43;48302.94;;;-141.90;51.32
5298;BME280;14738;42.668;23.250;2023-07-29T01:52:08;48300.97;;;-141.90;51.00
5298;BME280;14738;42.668;23.250;2023-07-29T01:54:34;48322.81;;;-141.90;51.52
5298;BME280;14738;42.668;23.250;2023-07-29T01:56:59;48326.78;;;-141.90;51.74
5298;BME280;14738;42.668;23.250;2023-07-29T01:59:25;48322.81;;;-141.90;51.65
5298;BME280;14738;42.668;23.250;2023-07-29T02:01:50;48334.72;;;-141.90;51.58
5298;BME280;14738;42.668;23.250;2023-07-29T02:04:15;48295.00;;;-141.90;51.56
5298;BME280;14738;42.668;23.250;2023-07-29T02:06:41;48334.72;;;-141.90;52.14
5298;BME280;14738;42.668;23.250;2023-07-29T02:09:06;48310.91;;;-141.90;52.82
5298;BME280;14738;42.668;23.250;2023-07-29T02:11:32;48334.72;;;-141.90;53.20
5298;BME280;14738;42.668;23.250;2023-07-29T02:13:57;48304.94;;;-141.90;52.42
5298;BME280;14738;42.668;23.250;2023-07-29T02:16:23;48324.78;;;-141.90;52.74
5298;BME280;14738;42.668;23.250;2023-07-29T02:18:49;48314.88;;;-141.90;53.32
5298;BME280;14738;42.668;23.250;2023-07-29T02:21:17;48297.00;;;-141.90;53.20
5298;BME280;14738;42.668;23.250;2023-07-29T02:23:46;48342.66;;;-141.90;53.29
5298;BME280;14738;42.668;23.250;2023-07-29T02:26:11;48318.84;;;-141.90;53.17
5298;BME280;14738;42.668;23.250;2023-07-29T02:28:36;48328.75;;;-141.90;53.76
5298;BME280;14738;42.668;23.250;2023-07-29T02:31:21;48350.59;;;-141.90;54.29
5298;BME280;14738;42.668;23.250;2023-07-29T02:33:47;48306.91;;;-141.90;54.66
5298;BME280;14738;42.668;23.250;2023-07-29T02:36:13;48346.63;;;-141.90;53.92
5298;BME280;14738;42.668;23.250;2023-07-29T02:38:39;48326.78;;;-141.90;53.52
5298;BME280;14738;42.668;23.250;2023-07-29T02:41:05;48336.69;;;-141.90;54.01
5298;BME280;14738;42.668;23.250;2023-07-29T02:43:30;48322.81;;;-141.90;53.96
5298;BME280;14738;42.668;23.250;2023-07-29T02:45:55;48318.84;;;-141.90;53.59
5298;BME280;14738;42.668;23.250;2023-07-29T02:48:21;48306.91;;;-141.90;53.17
5298;BME280;14738;42.668;23.250;2023-07-29T02:50:46;48318.84;;;-141.90;52.96
5298;BME280;14738;42.668;23.250;2023-07-29T02:53:12;48330.75;;;-141.90;52.51
5298;BME280;14738;42.668;23.250;2023-07-29T02:55:40;48310.91;;;-141.90;53.00
5298;BME280;14738;42.668;23.250;2023-07-29T02:58:06;48326.78;;;-141.90;54.16
5298;BME280;14738;42.668;23.250;2023-07-29T03:00:32;48302.94;;;-141.90;54.13
5298;BME280;14738;42.668;23.250;2023-07-29T03:02:58;48330.75;;;-141.90;54.87
5298;BME280;14738;42.668;23.250;2023-07-29T03:05:24;48306.91;;;-141.90;54.18
5298;BME280;14738;42.668;23.250;2023-07-29T03:07:49;48330.75;;;-141.90;54.95
5298;BME280;14738;42.668;23.250;2023-07-29T03:10:14;48342.66;;;-141.90;54.56
5298;BME280;14738;42.668;23.250;2023-07-29T03:12:40;48326.78;;;-141.90;54.31
5298;BME280;14738;42.668;23.250;2023-07-29T03:15:06;48332.72;;;-141.90;54.14
5298;BME280;14738;42.668;23.250;2023-07-29T03:17:31;48297.00;;;-141.90;54.05
5298;BME280;14738;42.668;23.250;2023-07-29T03:19:57;48330.75;;;-141.90;54.33
5298;BME280;14738;42.668;23.250;2023-07-29T03:22:23;48326.78;;;-141.90;55.18
5298;BME280;14738;42.668;23.250;2023-07-29T03:24:48;48310.91;;;-141.90;55.08
5298;BME280;14738;42.668;23.250;2023-07-29T03:27:13;48310.91;;;-141.90;54.17
5298;BME280;14738;42.668;23.250;2023-07-29T03:29:41;48330.75;;;-141.90;52.08
5298;BME280;14738;42.668;23.250;2023-07-29T03:32:07;48354.56;;;-141.90;49.41
5298;BME280;14738;42.668;23.250;2023-07-29T03:34:32;48360.53;;;-141.90;46.54
5298;BME280;14738;42.668;23.250;2023-07-29T03:36:58;48384.34;;;-141.90;44.29
5298;BME280;14738;42.668;23.250;2023-07-29T03:39:24;48418.09;;;-141.90;40.87
5298;BME280;14738;42.668;23.250;2023-07-29T03:41:49;48457.81;;;-141.90;39.52
5298;BME280;14738;42.668;23.250;2023-07-29T03:44:15;48477.66;;;-141.90;37.23
5298;BME280;14738;42.668;23.250;2023-07-29T03:46:40;48501.47;;;-141.90;36.08
5298;BME280;14738;42.668;23.250;2023-07-29T03:49:05;48537.22;;;-141.90;35.32
5298;BME280;14738;42.668;23.250;2023-07-29T03:51:31;48563.03;;;-141.90;33.93
5298;BME280;14738;42.668;23.250;2023-07-29T03:53:56;48600.75;;;-141.90;32.19
5298;BME280;14738;42.668;23.250;2023-07-29T03:56:22;48612.66;;;-141.90;30.94
5298;BME280;14738;42.668;23.250;2023-07-29T03:58:47;48610.66;;;-141.90;30.60
5298;BME280;14738;42.668;23.250;2023-07-29T04:01:14;48628.53;;;-141.90;29.85
5298;BME280;14738;42.668;23.250;2023-07-29T04:03:40;48628.53;;;-141.90;30.09
5298;BME280;14738;42.668;23.250;2023-07-29T04:06:05;48630.53;;;-141.90;29.06
5298;BME280;14738;42.668;23.250;2023-07-29T04:08:31;48688.09;;;-141.90;28.83
5298;BME280;14738;42.668;23.250;2023-07-29T04:10:56;48713.91;;;-141.90;27.57
5298;BME280;14738;42.668;23.250;2023-07-29T04:13:22;48703.97;;;-141.90;27.85
5298;BME280;14738;42.668;23.250;2023-07-29T04:15:47;48688.09;;;-141.90;28.45
5298;BME280;14738;42.668;23.250;2023-07-29T04:18:13;48711.91;;;-141.90;27.32
5298;BME280;14738;42.668;23.250;2023-07-29T04:20:38;48791.34;;;-141.90;26.76
5298;BME280;14738;42.668;23.250;2023-07-29T04:23:04;48842.97;;;-141.90;25.33
5298;BME280;14738;42.668;23.250;2023-07-29T04:25:29;48866.78;;;-141.90;24.17
5298;BME280;14738;42.668;23.250;2023-07-29T04:27:54;48839.00;;;-141.90;24.87
5298;BME280;14738;42.668;23.250;2023-07-29T04:30:20;48878.69;;;-141.90;24.22
5298;BME280;14738;42.668;23.250;2023-07-29T04:32:46;48904.50;;;-141.90;23.99
5298;BME280;14738;42.668;23.250;2023-07-29T04:35:13;48837.00;;;-141.90;24.42
5298;BME280;14738;42.668;23.250;2023-07-29T04:37:40;48811.19;;;-141.90;24.90
5298;BME280;14738;42.668;23.250;2023-07-29T04:40:06;48809.22;;;-141.90;24.97
5298;BME280;14738;42.668;23.250;2023-07-29T04:42:32;48866.78;;;-141.90;24.07
5298;BME280;14738;42.668;23.250;2023-07-29T04:44:58;48896.56;;;-141.90;24.06
5298;BME280;14738;42.668;23.250;2023-07-29T04:47:23;48874.72;;;-141.90;24.30
5298;BME280;14738;42.668;23.250;2023-07-29T04:49:48;48902.53;;;-141.90;23.61
5298;BME280;14738;42.668;23.250;2023-07-29T04:52:14;48799.28;;;-141.90;24.72
5298;BME280;14738;42.668;23.250;2023-07-29T04:54:40;48815.16;;;-141.90;25.67
5298;BME280;14738;42.668;23.250;2023-07-29T04:57:06;48866.78;;;-141.90;23.88
5298;BME280;14738;42.668;23.250;2023-07-29T04:59:31;48757.59;;;-141.90;25.34
5298;BME280;14738;42.668;23.250;2023-07-29T05:01:57;48787.38;;;-141.90;25.20
5298;BME280;14738;42.668;23.250;2023-07-29T05:04:23;48844.94;;;-141.90;25.02
5298;BME280;14738;42.668;23.250;2023-07-29T05:06:48;48920.41;;;-141.90;23.03
5298;BME280;14738;42.668;23.250;2023-07-29T05:09:18;48960.09;;;-141.90;22.69
5298;BME280;14738;42.668;23.250;2023-07-29T05:11:44;48950.19;;;-141.90;22.98
5298;BME280;14738;42.668;23.250;2023-07-29T05:14:14;48856.84;;;-141.90;24.40
5298;BME280;14738;42.668;23.250;2023-07-29T05:16:40;48938.25;;;-141.90;23.19
5298;BME280;14738;42.668;23.250;2023-07-29T05:19:05;48934.28;;;-141.90;23.30
5298;BME280;14738;42.668;23.250;2023-07-29T05:21:31;48848.91;;;-141.90;24.29
5298;BME280;14738;42.668;23.250;2023-07-29T05:23:56;48942.22;;;-141.90;23.52
5298;BME280;14738;42.668;23.250;2023-07-29T05:26:23;49017.69;;;-141.90;22.43
5298;BME280;14738;42.668;23.250;2023-07-29T05:28:48;48997.81;;;-141.90;22.05
5298;BME280;14738;42.668;23.250;2023-07-29T05:31:13;49003.78;;;-141.90;22.16
5298;BME280;14738;42.668;23.250;2023-07-29T05:33:39;48964.06;;;-141.90;22.55
5298;BME280;14738;42.668;23.250;2023-07-29T05:36:05;48886.63;;;-141.90;23.30
5298;BME280;14738;42.668;23.250;2023-07-29T05:38:30;48795.31;;;-141.90;23.63
5298;BME280;14738;42.668;23.250;2023-07-29T05:40:56;48968.03;;;-141.90;21.69
5298;BME280;14738;42.668;23.250;2023-07-29T05:43:23;49097.09;;;-141.90;21.84
5298;BME280;14738;42.668;23.250;2023-07-29T05:45:49;49170.56;;;-141.90;19.95
5298;BME280;14738;42.668;23.250;2023-07-29T05:48:14;49053.41;;;-141.90;21.19
5298;BME280;14738;42.668;23.250;2023-07-29T05:50:39;49192.41;;;-141.90;20.64
5298;BME280;14738;42.668;23.250;2023-07-29T05:53:05;49113.00;;;-141.90;21.25
5298;BME280;14738;42.668;23.250;2023-07-29T05:55:30;49077.25;;;-141.90;21.31
5298;BME280;14738;42.668;23.250;2023-07-29T05:57:56;48942.22;;;-141.90;21.90
5298;BME280;14738;42.668;23.250;2023-07-29T06:00:22;48991.88;;;-141.90;21.99
5298;BME280;14738;42.668;23.250;2023-07-29T06:02:48;48878.69;;;-141.90;23.61
5298;BME280;14738;42.668;23.250;2023-07-29T06:05:13;49049.44;;;-141.90;22.16
5298;BME280;14738;42.668;23.250;2023-07-29T06:07:39;49136.81;;;-141.90;21.40
5298;BME280;14738;42.668;23.250;2023-07-29T06:10:09;48850.91;;;-141.90;23.26
5298;BME280;14738;42.668;23.250;2023-07-29T06:12:37;48854.88;;;-141.90;23.67
5298;BME280;14738;42.668;23.250;2023-07-29T06:15:03;48995.84;;;-141.90;22.21
5298;BME280;14738;42.668;23.250;2023-07-29T06:17:28;49136.81;;;-141.90;20.17
5298;BME280;14738;42.668;23.250;2023-07-29T06:19:54;49184.47;;;-141.90;20.33
5298;BME280;14738;42.668;23.250;2023-07-29T06:22:19;49148.72;;;-141.90;20.66
5298;BME280;14738;42.668;23.250;2023-07-29T06:24:45;49160.66;;;-141.90;20.14
5298;BME280;14738;42.668;23.250;2023-07-29T06:27:10;49220.22;;;-141.90;19.83
5298;BME280;14738;42.668;23.250;2023-07-29T06:29:36;49212.28;;;-141.90;19.35
5298;BME280;14738;42.668;23.250;2023-07-29T06:32:01;49176.53;;;-141.90;19.64
5298;BME280;14738;42.668;23.250;2023-07-29T06:34:26;49105.03;;;-141.90;20.61
5298;BME280;14738;42.668;23.250;2023-07-29T06:36:52;49049.44;;;-141.90;20.84
5298;BME280;14738;42.668;23.250;2023-07-29T06:39:17;48977.97;;;-141.90;21.98
5298;BME280;14738;42.668;23.250;2023-07-29T06:41:43;49079.22;;;-141.90;20.81
5298;BME280;14738;42.668;23.250;2023-07-29T06:44:08;49109.03;;;-141.90;20.13
5298;BME280;14738;42.668;23.250;2023-07-29T06:46:34;49118.94;;;-141.90;20.56
5298;BME280;14738;42.668;23.250;2023-07-29T06:48:59;49232.13;;;-141.90;19.73
5298;BME280;14738;42.668;23.250;2023-07-29T06:51:24;49228.16;;;-141.90;19.62
5298;BME280;14738;42.668;23.250;2023-07-29T06:53:50;49097.09;;;-141.90;20.44
5298;BME280;14738;42.668;23.250;2023-07-29T06:56:15;49021.66;;;-141.90;20.84
5298;BME280;14738;42.668;23.250;2023-07-29T06:58:41;48952.16;;;-141.90;21.53
5298;BME280;14738;42.668;23.250;2023-07-29T07:01:06;48874.72;;;-141.90;22.63
5298;BME280;14738;42.668;23.250;2023-07-29T07:03:32;48958.13;;;-141.90;21.83
5298;BME280;14738;42.668;23.250;2023-07-29T07:05:57;49013.72;;;-141.90;21.17
5298;BME280;14738;42.668;23.250;2023-07-29T07:08:22;48974.00;;;-141.90;21.42
5298;BME280;14738;42.668;23.250;2023-07-29T07:10:48;48972.00;;;-141.90;21.33
5298;BME280;14738;42.668;23.250;2023-07-29T07:13:13;49021.66;;;-141.90;20.97
5298;BME280;14738;42.668;23.250;2023-07-29T07:15:39;48898.56;;;-141.90;22.08
5298;BME280;14738;42.668;23.250;2023-07-29T07:18:04;48950.19;;;-141.90;24.18
5298;BME280;14738;42.668;23.250;2023-07-29T07:20:30;48918.41;;;-141.90;22.72
5298;BME280;14738;42.668;23.250;2023-07-29T07:22:55;48870.75;;;-141.90;23.84
5298;BME280;14738;42.668;23.250;2023-07-29T07:25:21;48840.97;;;-141.90;23.14
5298;BME280;14738;42.668;23.250;2023-07-29T07:27:47;48809.22;;;-141.90;24.20
5298;BME280;14738;42.668;23.250;2023-07-29T07:30:13;48789.34;;;-141.90;24.72
5298;BME280;14738;42.668;23.250;2023-07-29T07:32:39;48821.13;;;-141.90;24.86
5298;BME280;14738;42.668;23.250;2023-07-29T07:35:05;48777.44;;;-141.90;25.65
5298;BME280;14738;42.668;23.250;2023-07-29T07:37:30;48823.09;;;-141.90;23.70
5298;BME280;14738;42.668;23.250;2023-07-29T07:39:56;48827.06;;;-141.90;24.56
5298;BME280;14738;42.668;23.250;2023-07-29T07:42:21;48777.44;;;-141.90;24.36
5298;BME280;14738;42.668;23.250;2023-07-29T07:44:47;48771.47;;;-141.90;24.29
5298;BME280;14738;42.668;23.250;2023-07-29T07:47:12;48811.19;;;-141.90;23.96
5298;BME280;14738;42.668;23.250;2023-07-29T07:49:38;48703.97;;;-141.90;24.96
5298;BME280;14738;42.668;23.250;2023-07-29T07:52:03;48717.88;;;-141.90;26.65
5298;BME280;14738;42.668;23.250;2023-07-29T07:54:29;48700.00;;;-141.90;25.09
5298;BME280;14738;42.668;23.250;2023-07-29T07:56:54;48729.78;;;-141.90;26.24
5298;BME280;14738;42.668;23.250;2023-07-29T07:59:20;48676.19;;;-141.90;25.30
5298;BME280;14738;42.668;23.250;2023-07-29T08:01:45;48674.19;;;-141.90;26.53
5298;BME280;14738;42.668;23.250;2023-07-29T08:04:12;48719.88;;;-141.90;26.68
5298;BME280;14738;42.668;23.250;2023-07-29T08:06:37;48698.03;;;-141.90;26.16
5298;BME280;14738;42.668;23.250;2023-07-29T08:09:03;48743.69;;;-141.90;26.25
5298;BME280;14738;42.668;23.250;2023-07-29T08:11:28;48674.19;;;-141.90;26.69
5298;BME280;14738;42.668;23.250;2023-07-29T08:13:54;48668.25;;;-141.90;27.80
5298;BME280;14738;42.668;23.250;2023-07-29T08:16:19;48666.25;;;-141.90;27.56
5298;BME280;14738;42.668;23.250;2023-07-29T08:18:44;48723.84;;;-141.90;27.04
5298;BME280;14738;42.668;23.250;2023-07-29T08:21:10;48711.91;;;-141.90;27.02
5298;BME280;14738;42.668;23.250;2023-07-29T08:23:36;48694.06;;;-141.90;27.07
5298;BME280;14738;42.668;23.250;2023-07-29T08:26:04;48745.69;;;-141.90;26.76
5298;BME280;14738;42.668;23.250;2023-07-29T08:28:33;48713.91;;;-141.90;26.19
5298;BME280;14738;42.668;23.250;2023-07-29T08:30:59;48680.16;;;-141.90;26.99
5298;BME280;14738;42.668;23.250;2023-07-29T08:33:25;48717.88;;;-141.90;25.65
5298;BME280;14738;42.668;23.250;2023-07-29T08:35:51;48660.31;;;-141.90;26.16
5298;BME280;14738;42.668;23.250;2023-07-29T08:38:16;48652.38;;;-141.90;27.95
5298;BME280;14738;42.668;23.250;2023-07-29T08:40:45;48719.88;;;-141.90;25.38
5298;BME280;14738;42.668;23.250;2023-07-29T08:43:16;48676.19;;;-141.90;26.16
5298;BME280;14738;42.668;23.250;2023-07-29T08:45:44;48674.19;;;-141.90;25.96
5298;BME280;14738;42.668;23.250;2023-07-29T08:48:10;48684.13;;;-141.90;25.88
5298;BME280;14738;42.668;23.250;2023-07-29T08:50:36;48696.03;;;-141.90;25.76
5298;BME280;14738;42.668;23.250;2023-07-29T08:53:05;48707.94;;;-141.90;26.11
5298;BME280;14738;42.668;23.250;2023-07-29T08:55:31;48721.84;;;-141.90;25.86
5298;BME280;14738;42.668;23.250;2023-07-29T08:57:58;48735.75;;;-141.90;25.67
5298;BME280;14738;42.668;23.250;2023-07-29T09:00:24;48709.94;;;-141.90;25.59
5298;BME280;14738;42.668;23.250;2023-07-29T09:02:50;48757.59;;;-141.90;24.46
5298;BME280;14738;42.668;23.250;2023-07-29T09:05:16;48725.81;;;-141.90;24.14
5298;BME280;14738;42.668;23.250;2023-07-29T09:07:42;48694.06;;;-141.90;25.30
5298;BME280;14738;42.668;23.250;2023-07-29T09:10:09;48711.91;;;-141.90;24.86
5298;BME280;14738;42.668;23.250;2023-07-29T09:12:38;48670.22;;;-141.90;25.96
5298;BME280;14738;42.668;23.250;2023-07-29T09:15:04;48700.00;;;-141.90;25.43
5298;BME280;14738;42.668;23.250;2023-07-29T09:17:33;48717.88;;;-141.90;25.86
5298;BME280;14738;42.668;23.250;2023-07-29T09:19:59;48735.75;;;-141.90;24.76
5298;BME280;14738;42.668;23.250;2023-07-29T09:22:27;48751.63;;;-141.90;25.41
5298;BME280;14738;42.668;23.250;2023-07-29T09:24:53;48747.66;;;-141.90;23.39
5298;BME280;14738;42.668;23.250;2023-07-29T09:27:28;48700.00;;;-141.90;24.21
5298;BME280;14738;42.668;23.250;2023-07-29T09:29:57;48713.91;;;-141.90;23.83
5298;BME280;14738;42.668;23.250;2023-07-29T09:32:24;48733.75;;;-141.90;24.11
5298;BME280;14738;42.668;23.250;2023-07-29T09:34:50;48711.91;;;-141.90;23.70
5298;BME280;14738;42.668;23.250;2023-07-29T09:37:17;48777.44;;;-141.90;24.78
5298;BME280;14738;42.668;23.250;2023-07-29T09:39:46;48729.78;;;-141.90;24.65
5298;BME280;14738;42.668;23.250;2023-07-29T09:42:22;48715.91;;;-141.90;23.55
5298;BME280;14738;42.668;23.250;2023-07-29T09:44:49;48747.66;;;-141.90;22.86
5298;BME280;14738;42.668;23.250;2023-07-29T09:47:26;48719.88;;;-141.90;22.65
5298;BME280;14738;42.668;23.250;2023-07-29T09:49:52;48741.69;;;-141.90;23.17
5298;BME280;14738;42.668;23.250;2023-07-29T09:52:22;48753.63;;;-141.90;23.43
5298;BME280;14738;42.668;23.250;2023-07-29T09:54:48;48741.69;;;-141.90;22.59
5298;BME280;14738;42.668;23.250;2023-07-29T09:57:15;48763.53;;;-141.90;23.75
5298;BME280;14738;42.668;23.250;2023-07-29T09:59:42;48755.59;;;-141.90;23.17
5298;BME280;14738;42.668;23.250;2023-07-29T10:02:15;48771.47;;;-141.90;22.68
5298;BME280;14738;42.668;23.250;2023-07-29T10:04:42;48723.84;;;-141.90;22.85
5298;BME280;14738;42.668;23.250;2023-07-29T10:07:09;48715.91;;;-141.90;22.95
5298;BME280;14738;42.668;23.250;2023-07-29T10:09:36;48749.66;;;-141.90;22.92
5298;BME280;14738;42.668;23.250;2023-07-29T10:12:04;48781.41;;;-141.90;21.80
5298;BME280;14738;42.668;23.250;2023-07-29T10:14:31;48743.69;;;-141.90;22.08
5298;BME280;14738;42.668;23.250;2023-07-29T10:16:57;48819.13;;;-141.90;21.90
5298;BME280;14738;42.668;23.250;2023-07-29T10:19:24;48787.38;;;-141.90;22.57
5298;BME280;14738;42.668;23.250;2023-07-29T10:21:52;48757.59;;;-141.90;22.74
5298;BME280;14738;42.668;23.250;2023-07-29T10:24:24;48791.34;;;-141.90;21.63
5298;BME280;14738;42.668;23.250;2023-07-29T10:26:58;48765.53;;;-141.90;22.08
5298;BME280;14738;42.668;23.250;2023-07-29T10:29:24;48771.47;;;-141.90;22.01
5298;BME280;14738;42.668;23.250;2023-07-29T10:31:54;48797.28;;;-141.90;21.70
5298;BME280;14738;42.668;23.250;2023-07-29T10:34:21;48829.06;;;-141.90;21.27
5298;BME280;14738;42.668;23.250;2023-07-29T10:36:48;48831.03;;;-141.90;21.96
5298;BME280;14738;42.668;23.250;2023-07-29T10:39:14;48858.84;;;-141.90;21.70
5298;BME280;14738;42.668;23.250;2023-07-29T10:42:01;48835.03;;;-141.90;21.25
5298;BME280;14738;42.668;23.250;2023-07-29T10:47:21;48831.03;;;-141.90;21.31
5298;BME280;14738;42.668;23.250;2023-07-29T10:49:52;48825.09;;;-141.90;21.25
5298;BME280;14738;42.668;23.250;2023-07-29T10:54:57;48831.03;;;-141.90;21.91
5298;BME280;14738;42.668;23.250;2023-07-29T10:57:36;48795.31;;;-141.90;22.08
5298;BME280;14738;42.668;23.250;2023-07-29T11:00:03;48809.22;;;-141.90;21.29
5298;BME280;14738;42.668;23.250;2023-07-29T11:02:35;48795.31;;;-141.90;21.44
5298;BME280;14738;42.668;23.250;2023-07-29T11:05:17;48807.22;;;-141.90;21.96
5298;BME280;14738;42.668;23.250;2023-07-29T11:07:48;48783.41;;;-141.90;21.16
5298;BME280;14738;42.668;23.250;2023-07-29T11:10:14;48779.44;;;-141.90;21.28
5298;BME280;14738;42.668;23.250;2023-07-29T11:12:51;48815.16;;;-141.90;21.05
5298;BME280;14738;42.668;23.250;2023-07-29T11:15:27;48801.25;;;-141.90;20.23
5298;BME280;14738;42.668;23.250;2023-07-29T11:17:57;48837.00;;;-141.90;20.26
5298;BME280;14738;42.668;23.250;2023-07-29T11:20:27;48807.22;;;-141.90;20.39
5298;BME280;14738;42.668;23.250;2023-07-29T11:22:54;48823.09;;;-141.90;19.85
5298;BME280;14738;42.668;23.250;2023-07-29T11:25:21;48823.09;;;-141.90;20.09
5298;BME280;14738;42.668;23.250;2023-07-29T11:27:47;48868.78;;;-141.90;20.87
5298;BME280;14738;42.668;23.250;2023-07-29T11:30:14;48850.91;;;-141.90;19.14
5298;BME280;14738;42.668;23.250;2023-07-29T11:32:41;48854.88;;;-141.90;19.21
5298;BME280;14738;42.668;23.250;2023-07-29T11:35:12;48837.00;;;-141.90;19.37
5298;BME280;14738;42.668;23.250;2023-07-29T11:37:41;48811.19;;;-141.90;19.59
5298;BME280;14738;42.668;23.250;2023-07-29T11:40:08;48807.22;;;-141.90;19.60
5298;BME280;14738;42.668;23.250;2023-07-29T11:42:36;48872.75;;;-141.90;19.27
5298;BME280;14738;42.668;23.250;2023-07-29T11:45:03;48842.97;;;-141.90;19.96
5298;BME280;14738;42.668;23.250;2023-07-29T11:47:32;48896.56;;;-141.90;19.67
5298;BME280;14738;42.668;23.250;2023-07-29T11:50:01;48862.81;;;-141.90;19.39
5298;BME280;14738;42.668;23.250;2023-07-29T11:52:27;48876.72;;;-141.90;18.84
5298;BME280;14738;42.668;23.250;2023-07-29T11:54:54;48916.41;;;-141.90;18.98
5298;BME280;14738;42.668;23.250;2023-07-29T11:57:20;48807.22;;;-141.90;18.74
5298;BME280;14738;42.668;23.250;2023-07-29T11:59:46;48886.63;;;-141.90;19.40
5298;BME280;14738;42.668;23.250;2023-07-29T12:02:16;48864.81;;;-141.90;19.22
5298;BME280;14738;42.668;23.250;2023-07-29T12:04:44;48876.72;;;-141.90;18.84
5298;BME280;14738;42.668;23.250;2023-07-29T12:07:10;48823.09;;;-141.90;18.84
5298;BME280;14738;42.668;23.250;2023-07-29T12:09:37;48866.78;;;-141.90;18.53
5298;BME280;14738;42.668;23.250;2023-07-29T12:12:04;48846.94;;;-141.90;19.32
5298;BME280;14738;42.668;23.250;2023-07-29T12:14:30;48884.66;;;-141.90;19.34
5298;BME280;14738;42.668;23.250;2023-07-29T12:16:56;48846.94;;;-141.90;19.53
5298;BME280;14738;42.668;23.250;2023-07-29T12:19:21;48868.78;;;-141.90;19.50
5298;BME280;14738;42.668;23.250;2023-07-29T12:21:50;48914.44;;;-141.90;19.34
5298;BME280;14738;42.668;23.250;2023-07-29T12:24:16;48858.84;;;-141.90;18.68
5298;BME280;14738;42.668;23.250;2023-07-29T12:26:41;48886.63;;;-141.90;18.96
5298;BME280;14738;42.668;23.250;2023-07-29T12:29:15;48858.84;;;-141.90;19.02
5298;BME280;14738;42.668;23.250;2023-07-29T12:31:41;48878.69;;;-141.90;18.48
5298;BME280;14738;42.668;23.250;2023-07-29T12:34:08;48894.59;;;-141.90;19.11
5298;BME280;14738;42.668;23.250;2023-07-29T12:36:44;48898.56;;;-141.90;18.76
5298;BME280;14738;42.668;23.250;2023-07-29T12:39:39;48866.78;;;-141.90;20.11
5298;BME280;14738;42.668;23.250;2023-07-29T12:42:06;48918.41;;;-141.90;18.61
5298;BME280;14738;42.668;23.250;2023-07-29T12:44:33;48872.75;;;-141.90;19.10
5298;BME280;14738;42.668;23.250;2023-07-29T12:47:04;48890.59;;;-141.90;18.79
5298;BME280;14738;42.668;23.250;2023-07-29T12:49:30;48894.59;;;-141.90;18.40
5298;BME280;14738;42.668;23.250;2023-07-29T12:51:57;48894.59;;;-141.90;18.61